Terminal Aerodrome Forecast
Issued by NWS Blacksburg, VA

Current Version | Previous Version | Text Only | Print | Product List | Glossary Off
Versions: 1 2 3 4 5 6 7 8 9 10 11 12 13 14 15 16 17 18 19 20 21 22 23 24 25 26 27 28 29 30 31 32 33 34 35

000
FTUS41 KRNK 292347
TAFBLF
TAF
KBLF 292347Z 3000/3024 25014G24KT P6SM OVC035
     FM300400 28018G28KT P6SM -SHSN OVC010
      TEMPO 3006/3010 3SM -SHSN OVC007
     FM301400 29020G30KT P6SM -SHSN OVC010
     FM301800 30018G32KT P6SM OVC015
     FM302200 30015G25KT P6SM BKN020=

USA.gov is the U.S. government's official web portal to all federal, state and local government web resources and services.